sensor_id;sensor_type;location;lat;lon;timestamp;pressure;altitude;pressure_sealevel;temperature;humidity
76052;BME280;64751;48.708;9.710;2023-01-28T00:00:57;98133.97;;;-0.67;83.78
76052;BME280;64751;48.708;9.710;2023-01-28T00:03:24;98132.97;;;-0.66;84.29
76052;BME280;64751;48.708;9.710;2023-01-28T00:06:01;98129.78;;;-0.68;83.48
76052;BME280;64751;48.708;9.710;2023-01-28T00:08:29;98128.78;;;-0.67;84.21
76052;BME280;64751;48.708;9.710;2023-01-28T00:11:02;98122.59;;;-0.66;84.03
76052;BME280;64751;48.708;9.710;2023-01-28T00:13:31;98126.78;;;-0.65;84.00
76052;BME280;64751;48.708;9.710;2023-01-28T00:16:00;98127.59;;;-0.64;83.52
76052;BME280;64751;48.708;9.710;2023-01-28T00:18:31;98122.03;;;-0.61;83.42
76052;BME280;64751;48.708;9.710;2023-01-28T00:21:01;98115.19;;;-0.69;83.16
76052;BME280;64751;48.708;9.710;2023-01-28T00:23:32;98132.22;;;-0.60;83.12
76052;BME280;64751;48.708;9.710;2023-01-28T00:26:02;98131.22;;;-0.59;83.62
76052;BME280;64751;48.708;9.710;2023-01-28T00:28:31;98130.63;;;-0.61;83.00
76052;BME280;64751;48.708;9.710;2023-01-28T00:30:59;98137.78;;;-0.63;82.91
76052;BME280;64751;48.708;9.710;2023-01-28T00:33:33;98137.00;;;-0.63;82.95
76052;BME280;64751;48.708;9.710;2023-01-28T00:36:02;98129.56;;;-0.66;82.72
76052;BME280;64751;48.708;9.710;2023-01-28T00:38:32;98130.38;;;-0.66;83.27
76052;BME280;64751;48.708;9.710;2023-01-28T00:41:12;98133.97;;;-0.67;82.79
76052;BME280;64751;48.708;9.710;2023-01-28T00:43:41;98120.81;;;-0.65;83.35
76052;BME280;64751;48.708;9.710;2023-01-28T00:46:11;98131.00;;;-0.64;83.40
76052;BME280;64751;48.708;9.710;2023-01-28T00:48:40;98127.78;;;-0.66;82.71
76052;BME280;64751;48.708;9.710;2023-01-28T00:51:09;98122.59;;;-0.66;83.27
76052;BME280;64751;48.708;9.710;2023-01-28T00:53:37;98111.38;;;-0.73;83.41
76052;BME280;64751;48.708;9.710;2023-01-28T00:56:07;98120.19;;;-0.74;83.31
76052;BME280;64751;48.708;9.710;2023-01-28T00:58:36;98098.16;;;-0.85;83.79
76052;BME280;64751;48.708;9.710;2023-01-28T01:01:06;98119.78;;;-0.71;83.77
76052;BME280;64751;48.708;9.710;2023-01-28T01:03:35;98126.19;;;-0.67;84.26
76052;BME280;64751;48.708;9.710;2023-01-28T01:06:03;98123.19;;;-0.70;83.68
76052;BME280;64751;48.708;9.710;2023-01-28T01:08:30;98125.41;;;-0.67;84.32
76052;BME280;64751;48.708;9.710;2023-01-28T01:11:01;98117.78;;;-0.69;84.26
76052;BME280;64751;48.708;9.710;2023-01-28T01:13:32;98119.41;;;-0.68;84.41
76052;BME280;64751;48.708;9.710;2023-01-28T01:16:03;98128.00;;;-0.67;83.89
76052;BME280;64751;48.708;9.710;2023-01-28T01:18:32;98123.41;;;-0.65;83.98
76052;BME280;64751;48.708;9.710;2023-01-28T01:21:01;98127.75;;;-0.73;84.38
76052;BME280;64751;48.708;9.710;2023-01-28T01:23:44;98081.72;;;-0.98;84.09
76052;BME280;64751;48.708;9.710;2023-01-28T01:26:14;98097.13;;;-0.90;84.42
76052;BME280;64751;48.708;9.710;2023-01-28T01:29:06;98119.13;;;-0.80;84.68
76052;BME280;64751;48.708;9.710;2023-01-28T01:31:51;98104.31;;;-0.92;84.49
76052;BME280;64751;48.708;9.710;2023-01-28T01:34:51;98127.09;;;-0.81;84.40
76052;BME280;64751;48.708;9.710;2023-01-28T01:37:38;98125.09;;;-0.86;84.38
76052;BME280;64751;48.708;9.710;2023-01-28T01:40:18;98116.28;;;-0.85;84.13
76052;BME280;64751;48.708;9.710;2023-01-28T01:43:13;98136.56;;;-0.67;84.46
76052;BME280;64751;48.708;9.710;2023-01-28T01:45:43;98128.53;;;-0.79;84.19
76052;BME280;64751;48.708;9.710;2023-01-28T01:48:40;98139.09;;;-0.74;84.55
76052;BME280;64751;48.708;9.710;2023-01-28T01:51:21;98116.00;;;-0.96;84.68
76052;BME280;64751;48.708;9.710;2023-01-28T01:53:56;98141.84;;;-0.82;84.72
76052;BME280;64751;48.708;9.710;2023-01-28T01:56:36;98142.84;;;-0.83;84.68
76052;BME280;64751;48.708;9.710;2023-01-28T01:59:11;98130.22;;;-0.92;84.58
76052;BME280;64751;48.708;9.710;2023-01-28T02:01:43;98161.47;;;-0.73;85.22
76052;BME280;64751;48.708;9.710;2023-01-28T02:04:32;98150.19;;;-0.86;85.16
76052;BME280;64751;48.708;9.710;2023-01-28T02:07:30;98137.44;;;-0.88;85.34
76052;BME280;64751;48.708;9.710;2023-01-28T02:10:31;98154.50;;;-0.72;85.42
76052;BME280;64751;48.708;9.710;2023-01-28T02:13:02;98146.09;;;-0.74;85.27
76052;BME280;64751;48.708;9.710;2023-01-28T02:15:41;98132.66;;;-0.84;85.91
76052;BME280;64751;48.708;9.710;2023-01-28T02:18:26;98152.69;;;-0.72;86.36
76052;BME280;64751;48.708;9.710;2023-01-28T02:21:20;98166.84;;;-0.74;85.68
76052;BME280;64751;48.708;9.710;2023-01-28T02:24:09;98157.44;;;-0.75;86.21
76052;BME280;64751;48.708;9.710;2023-01-28T02:27:12;98129.38;;;-0.99;86.27
76052;BME280;64751;48.708;9.710;2023-01-28T02:29:46;98167.44;;;-0.72;86.40
76052;BME280;64751;48.708;9.710;2023-01-28T02:32:22;98154.22;;;-0.84;86.60
76052;BME280;64751;48.708;9.710;2023-01-28T02:35:00;98139.19;;;-0.95;86.63
76052;BME280;64751;48.708;9.710;2023-01-28T02:38:27;98170.41;;;-0.75;86.93
76052;BME280;64751;48.708;9.710;2023-01-28T02:41:10;98148.22;;;-0.84;86.91
76052;BME280;64751;48.708;9.710;2023-01-28T02:43:42;98162.25;;;-0.72;86.86
76052;BME280;64751;48.708;9.710;2023-01-28T02:46:32;98149.88;;;-0.77;86.56
76052;BME280;64751;48.708;9.710;2023-01-28T02:49:22;98155.88;;;-0.69;87.28
76052;BME280;64751;48.708;9.710;2023-01-28T02:52:27;98127.84;;;-0.87;86.67
76052;BME280;64751;48.708;9.710;2023-01-28T02:55:20;98119.03;;;-0.93;86.67
76052;BME280;64751;48.708;9.710;2023-01-28T02:58:15;98136.22;;;-0.85;87.39
76052;BME280;64751;48.708;9.710;2023-01-28T03:01:00;98139.06;;;-0.80;86.71
76052;BME280;64751;48.708;9.710;2023-01-28T03:03:39;98110.47;;;-0.93;86.54
76052;BME280;64751;48.708;9.710;2023-01-28T03:06:13;98142.25;;;-0.78;86.30
76052;BME280;64751;48.708;9.710;2023-01-28T03:08:45;98148.88;;;-0.76;86.69
76052;BME280;64751;48.708;9.710;2023-01-28T03:11:36;98141.63;;;-0.87;86.42
76052;BME280;64751;48.708;9.710;2023-01-28T03:14:24;98140.06;;;-0.81;86.18
76052;BME280;64751;48.708;9.710;2023-01-28T03:17:15;98166.50;;;-0.64;86.14
76052;BME280;64751;48.708;9.710;2023-01-28T03:20:31;98117.66;;;-0.89;86.63
76052;BME280;64751;48.708;9.710;2023-01-28T03:23:22;98166.94;;;-0.61;86.24
76052;BME280;64751;48.708;9.710;2023-01-28T03:26:12;98166.13;;;-0.61;85.97
76052;BME280;64751;48.708;9.710;2023-01-28T03:29:05;98161.13;;;-0.63;86.20
76052;BME280;64751;48.708;9.710;2023-01-28T03:31:52;98163.16;;;-0.58;85.88
76052;BME280;64751;48.708;9.710;2023-01-28T03:34:39;98164.94;;;-0.59;85.63
76052;BME280;64751;48.708;9.710;2023-01-28T03:37:25;98156.56;;;-0.61;86.17
76052;BME280;64751;48.708;9.710;2023-01-28T03:40:20;98171.09;;;-0.60;85.87
76052;BME280;64751;48.708;9.710;2023-01-28T03:42:47;98161.91;;;-0.62;86.03
76052;BME280;64751;48.708;9.710;2023-01-28T03:45:33;98165.91;;;-0.60;86.09
76052;BME280;64751;48.708;9.710;2023-01-28T03:48:03;98172.88;;;-0.60;86.25
76052;BME280;64751;48.708;9.710;2023-01-28T03:50:33;98163.09;;;-0.65;85.92
76052;BME280;64751;48.708;9.710;2023-01-28T03:53:03;98174.31;;;-0.58;86.10
76052;BME280;64751;48.708;9.710;2023-01-28T03:55:48;98173.13;;;-0.55;86.09
76052;BME280;64751;48.708;9.710;2023-01-28T03:58:20;98178.31;;;-0.55;86.45
76052;BME280;64751;48.708;9.710;2023-01-28T04:00:49;98179.94;;;-0.54;86.47
76052;BME280;64751;48.708;9.710;2023-01-28T04:03:18;98172.16;;;-0.54;86.37
76052;BME280;64751;48.708;9.710;2023-01-28T04:06:13;98165.97;;;-0.53;86.32
76052;BME280;64751;48.708;9.710;2023-01-28T04:08:59;98173.75;;;-0.53;86.31
76052;BME280;64751;48.708;9.710;2023-01-28T04:11:31;98170.75;;;-0.57;86.60
76052;BME280;64751;48.708;9.710;2023-01-28T04:14:02;98170.53;;;-0.55;86.23
76052;BME280;64751;48.708;9.710;2023-01-28T04:16:41;98171.94;;;-0.53;86.37
76052;BME280;64751;48.708;9.710;2023-01-28T04:19:10;98169.53;;;-0.61;86.03
76052;BME280;64751;48.708;9.710;2023-01-28T04:21:39;98173.31;;;-0.57;86.10
76052;BME280;64751;48.708;9.710;2023-01-28T04:24:08;98180.09;;;-0.56;85.92
76052;BME280;64751;48.708;9.710;2023-01-28T04:26:35;98188.69;;;-0.55;86.04
76052;BME280;64751;48.708;9.710;2023-01-28T04:29:04;98198.50;;;-0.51;85.71
76052;BME280;64751;48.708;9.710;2023-01-28T04:31:37;98194.13;;;-0.50;85.84
76052;BME280;64751;48.708;9.710;2023-01-28T04:34:43;98193.06;;;-0.56;85.88
76052;BME280;64751;48.708;9.710;2023-01-28T04:37:29;98192.28;;;-0.56;86.09
76052;BME280;64751;48.708;9.710;2023-01-28T04:40:24;98194.31;;;-0.52;85.82
76052;BME280;64751;48.708;9.710;2023-01-28T04:43:03;98207.09;;;-0.50;86.25
76052;BME280;64751;48.708;9.710;2023-01-28T04:46:03;98204.84;;;-0.53;85.63
76052;BME280;64751;48.708;9.710;2023-01-28T04:48:53;98212.84;;;-0.55;85.85
76052;BME280;64751;48.708;9.710;2023-01-28T04:51:32;98209.63;;;-0.57;85.87
76052;BME280;64751;48.708;9.710;2023-01-28T04:54:18;98220.25;;;-0.52;86.08
76052;BME280;64751;48.708;9.710;2023-01-28T04:56:47;98219.06;;;-0.49;86.06
76052;BME280;64751;48.708;9.710;2023-01-28T04:59:15;98215.47;;;-0.48;85.74
76052;BME280;64751;48.708;9.710;2023-01-28T05:01:42;98216.28;;;-0.48;85.79
76052;BME280;64751;48.708;9.710;2023-01-28T05:04:10;98226.66;;;-0.48;85.39
76052;BME280;64751;48.708;9.710;2023-01-28T05:06:38;98225.03;;;-0.49;86.08
76052;BME280;64751;48.708;9.710;2023-01-28T05:09:15;98227.47;;;-0.47;85.76
76052;BME280;64751;48.708;9.710;2023-01-28T05:11:43;98228.25;;;-0.47;86.06
76052;BME280;64751;48.708;9.710;2023-01-28T05:14:12;98225.84;;;-0.48;85.72
76052;BME280;64751;48.708;9.710;2023-01-28T05:16:44;98230.84;;;-0.47;85.58
76052;BME280;64751;48.708;9.710;2023-01-28T05:19:12;98229.25;;;-0.48;85.60
76052;BME280;64751;48.708;9.710;2023-01-28T05:21:41;98233.63;;;-0.48;85.74
76052;BME280;64751;48.708;9.710;2023-01-28T05:24:25;98230.84;;;-0.47;85.91
76052;BME280;64751;48.708;9.710;2023-01-28T05:26:53;98228.25;;;-0.47;86.24
76052;BME280;64751;48.708;9.710;2023-01-28T05:29:22;98236.03;;;-0.47;86.33
76052;BME280;64751;48.708;9.710;2023-01-28T05:31:49;98225.66;;;-0.47;85.86
76052;BME280;64751;48.708;9.710;2023-01-28T05:34:17;98227.47;;;-0.47;86.05
76052;BME280;64751;48.708;9.710;2023-01-28T05:36:45;98231.03;;;-0.48;86.00
76052;BME280;64751;48.708;9.710;2023-01-28T05:39:26;98230.84;;;-0.47;86.27
76052;BME280;64751;48.708;9.710;2023-01-28T05:41:54;98233.44;;;-0.47;85.95
76052;BME280;64751;48.708;9.710;2023-01-28T05:44:23;98228.25;;;-0.47;86.21
76052;BME280;64751;48.708;9.710;2023-01-28T05:47:12;98230.66;;;-0.45;85.91
76052;BME280;64751;48.708;9.710;2023-01-28T05:49:47;98227.88;;;-0.44;85.47
76052;BME280;64751;48.708;9.710;2023-01-28T05:52:33;98225.09;;;-0.42;85.58
76052;BME280;64751;48.708;9.710;2023-01-28T05:55:02;98219.72;;;-0.41;85.53
76052;BME280;64751;48.708;9.710;2023-01-28T05:57:29;98223.75;;;-0.38;85.38
76052;BME280;64751;48.708;9.710;2023-01-28T05:59:58;98222.13;;;-0.39;85.38
76052;BME280;64751;48.708;9.710;2023-01-28T06:02:26;98225.31;;;-0.37;85.80
76052;BME280;64751;48.708;9.710;2023-01-28T06:04:59;98216.94;;;-0.39;85.77
76052;BME280;64751;48.708;9.710;2023-01-28T06:07:27;98230.72;;;-0.39;86.09
76052;BME280;64751;48.708;9.710;2023-01-28T06:09:54;98230.72;;;-0.39;85.43
76052;BME280;64751;48.708;9.710;2023-01-28T06:12:22;98233.19;;;0.64;91.94
76052;BME280;64751;48.708;9.710;2023-01-28T06:15:11;98235.56;;;0.59;84.01
76052;BME280;64751;48.708;9.710;2023-01-28T06:18:04;98233.47;;;0.35;82.28
76052;BME280;64751;48.708;9.710;2023-01-28T06:20:33;98245.81;;;0.20;83.07
76052;BME280;64751;48.708;9.710;2023-01-28T06:23:01;98245.75;;;0.07;83.45
76052;BME280;64751;48.708;9.710;2023-01-28T06:25:29;98254.69;;;-0.03;83.82
76052;BME280;64751;48.708;9.710;2023-01-28T06:28:00;98258.84;;;-0.08;83.74
76052;BME280;64751;48.708;9.710;2023-01-28T06:30:29;98265.59;;;-0.14;83.49
76052;BME280;64751;48.708;9.710;2023-01-28T06:32:56;98270.16;;;-0.16;84.11
76052;BME280;64751;48.708;9.710;2023-01-28T06:35:24;98269.16;;;-0.21;83.32
76052;BME280;64751;48.708;9.710;2023-01-28T06:37:52;98271.75;;;-0.21;83.79
76052;BME280;64751;48.708;9.710;2023-01-28T06:40:20;98283.91;;;-0.22;84.07
76052;BME280;64751;48.708;9.710;2023-01-28T06:42:48;98282.47;;;-0.24;84.04
76052;BME280;64751;48.708;9.710;2023-01-28T06:45:16;98289.06;;;-0.28;84.34
76052;BME280;64751;48.708;9.710;2023-01-28T06:47:45;98286.25;;;-0.27;84.46
76052;BME280;64751;48.708;9.710;2023-01-28T06:50:12;98288.25;;;-0.29;84.21
76052;BME280;64751;48.708;9.710;2023-01-28T06:52:40;98296.22;;;-0.30;84.27
76052;BME280;64751;48.708;9.710;2023-01-28T06:55:08;98298.41;;;-0.34;84.41
76052;BME280;64751;48.708;9.710;2023-01-28T06:57:37;98298.41;;;-0.34;84.29
76052;BME280;64751;48.708;9.710;2023-01-28T07:00:06;98296.19;;;-0.37;84.13
76052;BME280;64751;48.708;9.710;2023-01-28T07:02:35;98303.75;;;-0.35;83.93
76052;BME280;64751;48.708;9.710;2023-01-28T07:05:05;98291.78;;;-0.36;83.89
76052;BME280;64751;48.708;9.710;2023-01-28T07:07:33;98305.38;;;-0.34;84.34
76052;BME280;64751;48.708;9.710;2023-01-28T07:10:00;98310.38;;;-0.33;84.51
76052;BME280;64751;48.708;9.710;2023-01-28T07:12:28;98302.59;;;-0.33;84.44
76052;BME280;64751;48.708;9.710;2023-01-28T07:14:55;98307.41;;;-0.30;84.53
76052;BME280;64751;48.708;9.710;2023-01-28T07:17:23;98309.81;;;-0.28;84.31
76052;BME280;64751;48.708;9.710;2023-01-28T07:19:50;98307.41;;;-0.30;84.19
76052;BME280;64751;48.708;9.710;2023-01-28T07:22:19;98301.00;;;-0.34;84.26
76052;BME280;64751;48.708;9.710;2023-01-28T07:24:47;98294.41;;;-0.36;84.16
76052;BME280;64751;48.708;9.710;2023-01-28T07:27:14;98317.59;;;-0.28;84.03
76052;BME280;64751;48.708;9.710;2023-01-28T07:29:42;98309.41;;;-0.32;84.22
76052;BME280;64751;48.708;9.710;2023-01-28T07:32:09;98318.41;;;-0.28;83.92
76052;BME280;64751;48.708;9.710;2023-01-28T07:34:37;98318.22;;;-0.26;84.31
76052;BME280;64751;48.708;9.710;2023-01-28T07:37:07;98319.91;;;-0.12;88.76
76052;BME280;64751;48.708;9.710;2023-01-28T07:39:36;98316.41;;;0.02;84.44
76052;BME280;64751;48.708;9.710;2023-01-28T07:42:03;98323.78;;;-0.02;83.34
76052;BME280;64751;48.708;9.710;2023-01-28T07:44:36;98310.50;;;-0.13;82.90
76052;BME280;64751;48.708;9.710;2023-01-28T07:47:04;98325.50;;;-0.09;83.38
76052;BME280;64751;48.708;9.710;2023-01-28T07:49:32;98336.91;;;-0.10;83.63
76052;BME280;64751;48.708;9.710;2023-01-28T07:52:00;98334.69;;;-0.13;83.79
76052;BME280;64751;48.708;9.710;2023-01-28T07:54:28;98327.91;;;-0.14;83.91
76052;BME280;64751;48.708;9.710;2023-01-28T07:56:57;98341.66;;;-0.13;83.82
76052;BME280;64751;48.708;9.710;2023-01-28T07:59:24;98340.09;;;-0.08;83.27
76052;BME280;64751;48.708;9.710;2023-01-28T08:01:52;98344.28;;;-0.07;83.42
76052;BME280;64751;48.708;9.710;2023-01-28T08:04:20;98344.28;;;-0.07;83.34
76052;BME280;64751;48.708;9.710;2023-01-28T08:06:47;98343.13;;;-0.04;83.32
76052;BME280;64751;48.708;9.710;2023-01-28T08:09:17;98335.16;;;-0.03;83.42
76052;BME280;64751;48.708;9.710;2023-01-28T08:11:45;98340.97;;;-0.01;82.92
76052;BME280;64751;48.708;9.710;2023-01-28T08:14:13;98347.75;;;0.00;83.45
76052;BME280;64751;48.708;9.710;2023-01-28T08:16:41;98357.16;;;0.02;83.51
76052;BME280;64751;48.708;9.710;2023-01-28T08:19:09;98352.56;;;0.04;83.45
76052;BME280;64751;48.708;9.710;2023-01-28T08:21:36;98345.53;;;-0.03;83.28
76052;BME280;64751;48.708;9.710;2023-01-28T08:24:05;98352.38;;;0.05;83.07
76052;BME280;64751;48.708;9.710;2023-01-28T08:26:32;98356.81;;;0.11;83.20
76052;BME280;64751;48.708;9.710;2023-01-28T08:29:00;98345.63;;;0.11;83.18
76052;BME280;64751;48.708;9.710;2023-01-28T08:31:29;98334.16;;;-0.02;83.49
76052;BME280;64751;48.708;9.710;2023-01-28T08:33:56;98356.81;;;0.11;83.17
76052;BME280;64751;48.708;9.710;2023-01-28T08:36:24;98365.03;;;0.15;82.37
76052;BME280;64751;48.708;9.710;2023-01-28T08:38:52;98356.88;;;0.18;82.67
76052;BME280;64751;48.708;9.710;2023-01-28T08:41:20;98356.09;;;0.24;82.61
76052;BME280;64751;48.708;9.710;2023-01-28T08:43:48;98352.31;;;0.26;82.48
76052;BME280;64751;48.708;9.710;2023-01-28T08:46:16;98352.13;;;0.28;82.55
76052;BME280;64751;48.708;9.710;2023-01-28T08:48:52;98356.50;;;0.27;82.30
76052;BME280;64751;48.708;9.710;2023-01-28T08:51:20;98355.16;;;0.31;82.33
76052;BME280;64751;48.708;9.710;2023-01-28T08:53:48;98328.06;;;0.13;82.40
76052;BME280;64751;48.708;9.710;2023-01-28T08:56:16;98356.75;;;0.32;81.41
76052;BME280;64751;48.708;9.710;2023-01-28T08:58:44;98347.94;;;0.27;82.01
76052;BME280;64751;48.708;9.710;2023-01-28T09:01:12;98380.97;;;0.39;82.13
76052;BME280;64751;48.708;9.710;2023-01-28T09:03:40;98377.78;;;0.44;82.14
76052;BME280;64751;48.708;9.710;2023-01-28T09:06:09;98368.53;;;0.35;82.22
76052;BME280;64751;48.708;9.710;2023-01-28T09:08:38;98363.34;;;0.35;81.12
76052;BME280;64751;48.708;9.710;2023-01-28T09:11:06;98380.41;;;0.44;81.26
76052;BME280;64751;48.708;9.710;2023-01-28T09:13:34;98377.81;;;0.50;81.25
76052;BME280;64751;48.708;9.710;2023-01-28T09:16:04;98377.03;;;0.50;81.12
76052;BME280;64751;48.708;9.710;2023-01-28T09:18:32;98390.00;;;0.50;81.23
76052;BME280;64751;48.708;9.710;2023-01-28T09:21:03;98383.84;;;0.51;80.84
76052;BME280;64751;48.708;9.710;2023-01-28T09:23:34;98376.22;;;0.49;81.97
76052;BME280;64751;48.708;9.710;2023-01-28T09:26:03;98368.03;;;0.52;81.37
76052;BME280;64751;48.708;9.710;2023-01-28T09:28:32;98387.31;;;0.64;81.51
76052;BME280;64751;48.708;9.710;2023-01-28T09:31:02;98342.22;;;0.44;80.95
76052;BME280;64751;48.708;9.710;2023-01-28T09:33:30;98352.19;;;0.41;80.16
76052;BME280;64751;48.708;9.710;2023-01-28T09:35:58;98361.22;;;0.45;80.68
76052;BME280;64751;48.708;9.710;2023-01-28T09:38:28;98380.47;;;0.57;80.37
76052;BME280;64751;48.708;9.710;2023-01-28T09:40:59;98391.94;;;0.69;80.57
76052;BME280;64751;48.708;9.710;2023-01-28T09:43:46;98367.03;;;0.47;80.56
76052;BME280;64751;48.708;9.710;2023-01-28T09:46:18;98398.94;;;0.75;80.71
76052;BME280;64751;48.708;9.710;2023-01-28T09:48:48;98404.16;;;0.75;80.46
76052;BME280;64751;48.708;9.710;2023-01-28T09:51:27;98408.56;;;0.81;79.71
76052;BME280;64751;48.708;9.710;2023-01-28T09:54:01;98406.38;;;0.78;80.09
76052;BME280;64751;48.708;9.710;2023-01-28T09:56:39;98405.13;;;0.74;80.55
76052;BME280;64751;48.708;9.710;2023-01-28T09:59:16;98375.25;;;0.57;79.80
76052;BME280;64751;48.708;9.710;2023-01-28T10:01:52;98408.59;;;0.88;80.15
76052;BME280;64751;48.708;9.710;2023-01-28T10:04:31;98401.44;;;0.90;79.73
76052;BME280;64751;48.708;9.710;2023-01-28T10:07:17;98385.78;;;0.83;79.58
76052;BME280;64751;48.708;9.710;2023-01-28T10:09:54;98394.47;;;1.03;79.19
76052;BME280;64751;48.708;9.710;2023-01-28T10:12:42;98358.44;;;0.94;78.25
76052;BME280;64751;48.708;9.710;2023-01-28T10:15:21;98399.75;;;1.23;79.03
76052;BME280;64751;48.708;9.710;2023-01-28T10:18:00;98374.47;;;1.10;78.96
76052;BME280;64751;48.708;9.710;2023-01-28T10:20:35;98397.56;;;1.33;77.71
76052;BME280;64751;48.708;9.710;2023-01-28T10:23:09;98395.56;;;1.35;77.62
76052;BME280;64751;48.708;9.710;2023-01-28T10:25:40;98375.34;;;1.30;77.61
76052;BME280;64751;48.708;9.710;2023-01-28T10:28:18;98394.81;;;1.48;77.77
76052;BME280;64751;48.708;9.710;2023-01-28T10:30:47;98393.22;;;1.53;78.01
76052;BME280;64751;48.708;9.710;2023-01-28T10:33:19;98390.59;;;1.53;78.71
76052;BME280;64751;48.708;9.710;2023-01-28T10:35:47;98393.41;;;1.52;78.16
76052;BME280;64751;48.708;9.710;2023-01-28T10:38:19;98382.56;;;1.48;77.73
76052;BME280;64751;48.708;9.710;2023-01-28T10:40:49;98382.78;;;1.46;78.27
76052;BME280;64751;48.708;9.710;2023-01-28T10:43:22;98374.16;;;1.39;78.67
76052;BME280;64751;48.708;9.710;2023-01-28T10:45:56;98382.16;;;1.31;77.76
76052;BME280;64751;48.708;9.710;2023-01-28T10:48:28;98384.53;;;1.26;78.68
76052;BME280;64751;48.708;9.710;2023-01-28T10:50:58;98391.34;;;1.21;78.67
76052;BME280;64751;48.708;9.710;2023-01-28T10:53:35;98387.91;;;1.14;79.28
76052;BME280;64751;48.708;9.710;2023-01-28T10:56:06;98386.91;;;1.15;79.51
76052;BME280;64751;48.708;9.710;2023-01-28T10:58:47;98360.47;;;0.98;78.95
76052;BME280;64751;48.708;9.710;2023-01-28T11:01:17;98363.66;;;1.00;79.07
76052;BME280;64751;48.708;9.710;2023-01-28T11:03:53;98387.09;;;1.13;78.13
76052;BME280;64751;48.708;9.710;2023-01-28T11:06:24;98363.06;;;0.98;78.27
76052;BME280;64751;48.708;9.710;2023-01-28T11:08:52;98379.69;;;1.10;79.10
76052;BME280;64751;48.708;9.710;2023-01-28T11:11:24;98384.88;;;1.10;79.55
76052;BME280;64751;48.708;9.710;2023-01-28T11:13:54;98352.78;;;0.84;79.86
76052;BME280;64751;48.708;9.710;2023-01-28T11:16:24;98388.88;;;1.06;79.51
76052;BME280;64751;48.708;9.710;2023-01-28T11:18:55;98383.06;;;1.04;79.67
76052;BME280;64751;48.708;9.710;2023-01-28T11:21:28;98384.25;;;1.02;79.36
76052;BME280;64751;48.708;9.710;2023-01-28T11:23:59;98391.66;;;0.98;79.76
76052;BME280;64751;48.708;9.710;2023-01-28T11:26:30;98392.25;;;1.00;78.58
76052;BME280;64751;48.708;9.710;2023-01-28T11:29:03;98389.44;;;0.95;78.40
76052;BME280;64751;48.708;9.710;2023-01-28T11:31:37;98385.03;;;0.89;79.62
76052;BME280;64751;48.708;9.710;2023-01-28T11:34:13;98377.38;;;0.81;79.47
76052;BME280;64751;48.708;9.710;2023-01-28T11:36:49;98403.25;;;0.96;79.26
76052;BME280;64751;48.708;9.710;2023-01-28T11:39:20;98379.81;;;0.83;78.58
76052;BME280;64751;48.708;9.710;2023-01-28T11:41:53;98388.59;;;0.82;79.32
76052;BME280;64751;48.708;9.710;2023-01-28T11:44:26;98403.63;;;0.93;78.99
76052;BME280;64751;48.708;9.710;2023-01-28T11:47:18;98381.22;;;0.85;80.43
76052;BME280;64751;48.708;9.710;2023-01-28T11:50:04;98404.06;;;0.96;80.01
76052;BME280;64751;48.708;9.710;2023-01-28T11:52:50;98399.63;;;0.97;79.78
76052;BME280;64751;48.708;9.710;2023-01-28T11:55:30;98407.44;;;0.97;78.73
76052;BME280;64751;48.708;9.710;2023-01-28T11:58:12;98398.66;;;0.98;79.33
76052;BME280;64751;48.708;9.710;2023-01-28T12:00:52;98393.69;;;1.03;79.65
76052;BME280;64751;48.708;9.710;2023-01-28T12:03:40;98381.44;;;0.97;78.78
76052;BME280;64751;48.708;9.710;2023-01-28T12:06:30;98380.50;;;1.11;79.40
76052;BME280;64751;48.708;9.710;2023-01-28T12:09:12;98385.72;;;1.24;78.38
76052;BME280;64751;48.708;9.710;2023-01-28T12:11:55;98351.50;;;1.14;78.51
76052;BME280;64751;48.708;9.710;2023-01-28T12:15:02;98388.19;;;1.45;77.78
76052;BME280;64751;48.708;9.710;2023-01-28T12:17:44;98379.38;;;1.46;77.48
76052;BME280;64751;48.708;9.710;2023-01-28T12:20:20;98358.16;;;1.36;77.38
76052;BME280;64751;48.708;9.710;2023-01-28T12:23:02;98387.81;;;1.55;77.26
76052;BME280;64751;48.708;9.710;2023-01-28T12:25:40;98355.56;;;1.36;76.69
76052;BME280;64751;48.708;9.710;2023-01-28T12:28:21;98380.78;;;1.48;76.61
76052;BME280;64751;48.708;9.710;2023-01-28T12:31:07;98383.41;;;1.55;76.70
76052;BME280;64751;48.708;9.710;2023-01-28T12:33:54;98376.41;;;1.56;76.22
76052;BME280;64751;48.708;9.710;2023-01-28T12:36:32;98369.00;;;1.59;78.01
76052;BME280;64751;48.708;9.710;2023-01-28T12:39:19;98378.03;;;1.63;78.06
76052;BME280;64751;48.708;9.710;2023-01-28T12:42:03;98371.41;;;1.74;76.13
76052;BME280;64751;48.708;9.710;2023-01-28T12:44:35;98344.34;;;1.62;77.33
76052;BME280;64751;48.708;9.710;2023-01-28T12:47:07;98366.22;;;1.80;76.64
76052;BME280;64751;48.708;9.710;2023-01-28T12:49:39;98376.81;;;1.92;75.14
76052;BME280;64751;48.708;9.710;2023-01-28T12:52:14;98337.78;;;1.72;74.67
76052;BME280;64751;48.708;9.710;2023-01-28T12:54:52;98380.25;;;1.99;74.63
76052;BME280;64751;48.708;9.710;2023-01-28T12:57:27;98364.41;;;1.94;75.49
76052;BME280;64751;48.708;9.710;2023-01-28T13:00:01;98363.22;;;1.96;75.14
76052;BME280;64751;48.708;9.710;2023-01-28T13:02:33;98343.78;;;1.79;76.14
76052;BME280;64751;48.708;9.710;2023-01-28T13:05:09;98348.56;;;1.82;74.64
76052;BME280;64751;48.708;9.710;2023-01-28T13:07:44;98333.75;;;1.83;76.12
76052;BME280;64751;48.708;9.710;2023-01-28T13:10:18;98341.78;;;1.81;75.16
76052;BME280;64751;48.708;9.710;2023-01-28T13:12:49;98367.00;;;1.94;75.67
76052;BME280;64751;48.708;9.710;2023-01-28T13:15:18;98375.03;;;1.92;75.60
76052;BME280;64751;48.708;9.710;2023-01-28T13:17:54;98368.41;;;1.90;75.16
76052;BME280;64751;48.708;9.710;2023-01-28T13:20:35;98374.81;;;1.94;76.59
76052;BME280;64751;48.708;9.710;2023-01-28T13:23:05;98352.19;;;1.81;75.44
76052;BME280;64751;48.708;9.710;2023-01-28T13:25:34;98344.19;;;1.63;75.76
76052;BME280;64751;48.708;9.710;2023-01-28T13:28:04;98365.81;;;1.90;75.52
76052;BME280;64751;48.708;9.710;2023-01-28T13:30:34;98381.03;;;1.93;76.40
76052;BME280;64751;48.708;9.710;2023-01-28T13:33:27;98380.41;;;1.91;76.68
76052;BME280;64751;48.708;9.710;2023-01-28T13:36:01;98384.84;;;1.84;75.72
76052;BME280;64751;48.708;9.710;2023-01-28T13:38:30;98373.81;;;1.75;76.58
76052;BME280;64751;48.708;9.710;2023-01-28T13:41:00;98368.81;;;1.80;77.56
76052;BME280;64751;48.708;9.710;2023-01-28T13:43:36;98381.03;;;1.80;76.63
76052;BME280;64751;48.708;9.710;2023-01-28T13:46:05;98366.00;;;1.56;77.01